createdAt,value
2022-08-26T00:01:38.855Z,19.36
2022-08-26T00:02:38.871Z,19.36
2022-08-26T00:03:38.875Z,19.35
2022-08-26T00:04:38.815Z,19.38
2022-08-26T00:05:38.803Z,19.32
2022-08-26T00:06:38.789Z,19.27
2022-08-26T00:07:38.776Z,19.22
2022-08-26T00:08:38.762Z,19.15
2022-08-26T00:09:40.082Z,19.06
2022-08-26T00:10:38.735Z,18.99
2022-08-26T00:11:38.724Z,18.91
2022-08-26T00:12:38.709Z,18.81
2022-08-26T00:13:38.697Z,18.70
2022-08-26T00:14:38.682Z,18.60
2022-08-26T00:15:38.671Z,18.51
2022-08-26T00:16:41.065Z,18.50
2022-08-26T00:17:40.314Z,18.50
2022-08-26T00:18:38.862Z,18.50
2022-08-26T00:19:38.617Z,18.48
2022-08-26T00:20:38.602Z,18.48
2022-08-26T00:21:38.590Z,18.48
2022-08-26T00:22:38.576Z,18.50
2022-08-26T00:23:38.569Z,18.55
2022-08-26T00:24:38.549Z,18.54
2022-08-26T00:25:38.537Z,18.51
2022-08-26T00:26:38.523Z,18.48
2022-08-26T00:27:38.511Z,18.47
2022-08-26T00:28:38.497Z,18.45
2022-08-26T00:29:38.485Z,18.37
2022-08-26T00:30:38.470Z,18.35
2022-08-26T00:31:38.521Z,18.25
2022-08-26T00:32:38.444Z,18.17
2022-08-26T00:33:38.487Z,18.17
2022-08-26T00:34:38.417Z,18.11
2022-08-26T00:35:38.405Z,18.04
2022-08-26T00:36:38.390Z,17.92
2022-08-26T00:37:38.378Z,17.89
2022-08-26T00:38:38.363Z,17.85
2022-08-26T00:39:38.352Z,17.83
2022-08-26T00:40:38.341Z,17.74
2022-08-26T00:41:38.327Z,17.71
2022-08-26T00:42:38.313Z,17.67
2022-08-26T00:43:46.199Z,17.67
2022-08-26T00:44:38.286Z,17.76
2022-08-26T00:45:38.311Z,17.78
2022-08-26T00:46:38.260Z,17.85
2022-08-26T00:47:38.246Z,17.85
2022-08-26T00:48:38.232Z,17.94
2022-08-26T00:49:38.244Z,17.99
2022-08-26T00:50:38.207Z,18.04
2022-08-26T00:51:38.193Z,18.09
2022-08-26T00:52:38.178Z,18.13
2022-08-26T00:53:38.167Z,18.16
2022-08-26T00:54:38.152Z,18.16
2022-08-26T00:55:38.412Z,18.17
2022-08-26T00:56:38.127Z,18.32
2022-08-26T00:57:38.113Z,18.51
2022-08-26T00:58:38.099Z,18.63
2022-08-26T00:59:38.898Z,18.62
2022-08-26T01:00:38.120Z,18.58
2022-08-26T01:01:38.060Z,18.60
2022-08-26T01:02:38.065Z,18.57
2022-08-26T01:03:38.034Z,18.55
2022-08-26T01:04:38.019Z,18.50
2022-08-26T01:05:38.007Z,18.47
2022-08-26T01:06:37.996Z,18.37
2022-08-26T01:07:37.982Z,18.32
2022-08-26T01:08:37.967Z,18.22
2022-08-26T01:09:37.955Z,18.14
2022-08-26T01:10:37.940Z,18.04
2022-08-26T01:11:37.928Z,17.94
2022-08-26T01:12:37.914Z,17.88
2022-08-26T01:13:37.903Z,17.76
2022-08-26T01:14:37.886Z,17.65
2022-08-26T01:15:37.874Z,17.58
2022-08-26T01:16:37.952Z,17.54
2022-08-26T01:17:37.849Z,17.56
2022-08-26T01:18:37.834Z,17.58
2022-08-26T01:19:37.822Z,17.70
2022-08-26T01:20:37.807Z,17.85
2022-08-26T01:21:40.657Z,17.94
2022-08-26T01:22:37.782Z,17.96
2022-08-26T01:23:37.774Z,17.98
2022-08-26T01:24:37.755Z,17.95
2022-08-26T01:25:37.744Z,17.95
2022-08-26T01:26:37.731Z,17.92
2022-08-26T01:27:37.717Z,17.94
2022-08-26T01:28:37.703Z,17.88
2022-08-26T01:29:37.690Z,17.85
2022-08-26T01:30:37.678Z,17.78
2022-08-26T01:31:37.747Z,17.78
2022-08-26T01:32:38.998Z,17.77
2022-08-26T01:33:42.125Z,17.73
2022-08-26T01:34:37.627Z,17.67
2022-08-26T01:35:37.613Z,17.61
2022-08-26T01:36:37.598Z,17.54
2022-08-26T01:37:38.940Z,17.44
2022-08-26T01:38:37.571Z,17.43
2022-08-26T01:39:37.559Z,17.33
2022-08-26T01:40:37.545Z,17.23
2022-08-26T01:41:37.534Z,17.19
2022-08-26T01:42:37.519Z,17.16
2022-08-26T01:43:37.507Z,17.16
2022-08-26T01:44:37.492Z,17.21
2022-08-26T01:45:37.507Z,17.22
2022-08-26T01:46:37.467Z,17.22
2022-08-26T01:47:37.454Z,17.25
2022-08-26T01:48:37.440Z,17.25
2022-08-26T01:49:37.428Z,17.23
2022-08-26T01:50:37.416Z,17.22
2022-08-26T01:51:37.402Z,17.19
2022-08-26T01:52:37.387Z,17.14
2022-08-26T01:53:37.375Z,17.07
2022-08-26T01:54:37.361Z,17.04
2022-08-26T01:55:37.349Z,17.03
2022-08-26T01:56:37.336Z,16.94
2022-08-26T01:57:37.322Z,16.88
2022-08-26T01:58:37.311Z,16.85
2022-08-26T01:59:37.297Z,16.88
2022-08-26T02:00:37.341Z,16.98
2022-08-26T02:01:37.271Z,17.12
2022-08-26T02:02:37.257Z,17.21
2022-08-26T02:03:38.623Z,17.36
2022-08-26T02:04:37.293Z,17.37
2022-08-26T02:05:37.217Z,17.40
2022-08-26T02:06:37.205Z,17.48
2022-08-26T02:07:37.191Z,17.46
2022-08-26T02:08:37.179Z,17.44
2022-08-26T02:09:41.102Z,17.41
2022-08-26T02:10:37.154Z,17.40
2022-08-26T02:11:37.142Z,17.30
2022-08-26T02:12:37.126Z,17.26
2022-08-26T02:13:37.112Z,17.18
2022-08-26T02:14:37.107Z,17.11
2022-08-26T02:15:37.086Z,17.01
2022-08-26T02:16:37.116Z,16.94
2022-08-26T02:17:37.059Z,16.87
2022-08-26T02:18:37.047Z,16.77
2022-08-26T02:19:37.033Z,16.77
2022-08-26T02:20:37.022Z,16.77
2022-08-26T02:21:37.007Z,16.84
2022-08-26T02:22:36.995Z,16.96
2022-08-26T02:23:36.980Z,17.01
2022-08-26T02:24:36.970Z,16.98
2022-08-26T02:25:36.954Z,17.00
2022-08-26T02:26:36.942Z,17.03
2022-08-26T02:27:36.978Z,17.07
2022-08-26T02:28:36.916Z,17.11
2022-08-26T02:29:36.902Z,17.15
2022-08-26T02:30:36.892Z,17.16
2022-08-26T02:31:36.925Z,17.16
2022-08-26T02:32:36.864Z,17.16
2022-08-26T02:33:36.849Z,17.14
2022-08-26T02:34:36.837Z,17.08
2022-08-26T02:35:36.823Z,17.03
2022-08-26T02:36:36.812Z,17.01
2022-08-26T02:37:36.797Z,16.96
2022-08-26T02:38:36.785Z,16.87
2022-08-26T02:39:36.771Z,16.82
2022-08-26T02:40:36.839Z,16.80
2022-08-26T02:41:44.782Z,16.78
2022-08-26T02:42:36.741Z,16.77
2022-08-26T02:43:36.718Z,16.77
2022-08-26T02:44:36.705Z,16.80
2022-08-26T02:45:36.690Z,16.80
2022-08-26T02:46:36.724Z,16.80
2022-08-26T02:47:36.665Z,16.81
2022-08-26T02:48:36.659Z,16.80
2022-08-26T02:49:36.640Z,16.82
2022-08-26T02:50:36.628Z,16.85
2022-08-26T02:51:36.614Z,16.85
2022-08-26T02:52:36.601Z,16.88
2022-08-26T02:53:36.586Z,16.91
2022-08-26T02:54:36.578Z,16.87
2022-08-26T02:55:36.561Z,16.85
2022-08-26T02:56:36.550Z,16.84
2022-08-26T02:57:36.536Z,16.80
2022-08-26T02:58:36.523Z,16.85
2022-08-26T02:59:36.509Z,16.84
2022-08-26T03:00:36.550Z,16.82
2022-08-26T03:01:36.496Z,16.87
2022-08-26T03:02:36.470Z,16.85
2022-08-26T03:03:36.456Z,16.93
2022-08-26T03:04:36.444Z,17.03
2022-08-26T03:05:36.430Z,17.08
2022-08-26T03:06:36.417Z,17.15
2022-08-26T03:07:36.403Z,17.14
2022-08-26T03:08:36.391Z,17.14
2022-08-26T03:09:36.377Z,17.15
2022-08-26T03:10:36.364Z,17.15
2022-08-26T03:11:36.351Z,17.16
2022-08-26T03:12:36.341Z,17.16
2022-08-26T03:13:36.325Z,17.15
2022-08-26T03:14:36.312Z,17.12
2022-08-26T03:15:36.300Z,17.14
2022-08-26T03:16:36.357Z,17.11
2022-08-26T03:17:36.272Z,17.12
2022-08-26T03:18:36.265Z,17.16
2022-08-26T03:19:36.246Z,17.25
2022-08-26T03:20:36.235Z,17.23
2022-08-26T03:21:36.241Z,17.25
2022-08-26T03:22:36.208Z,17.22
2022-08-26T03:23:36.194Z,17.19
2022-08-26T03:24:36.181Z,17.12
2022-08-26T03:25:36.167Z,17.08
2022-08-26T03:26:36.155Z,16.98
2022-08-26T03:27:36.141Z,16.93
2022-08-26T03:28:36.129Z,16.85
2022-08-26T03:29:36.116Z,16.81
2022-08-26T03:30:36.105Z,16.78
2022-08-26T03:31:36.175Z,16.72
2022-08-26T03:32:36.078Z,16.74
2022-08-26T03:33:36.063Z,16.70
2022-08-26T03:34:36.050Z,16.75
2022-08-26T03:35:36.037Z,16.72
2022-08-26T03:36:36.024Z,16.75
2022-08-26T03:37:36.012Z,16.74
2022-08-26T03:38:35.999Z,16.72
2022-08-26T03:39:35.985Z,16.69
2022-08-26T03:40:35.975Z,16.72
2022-08-26T03:41:35.957Z,16.75
2022-08-26T03:42:35.947Z,16.80
2022-08-26T03:43:35.931Z,16.82
2022-08-26T03:44:35.919Z,16.94
2022-08-26T03:45:35.904Z,16.98
2022-08-26T03:46:35.939Z,17.01
2022-08-26T03:47:35.879Z,17.04
2022-08-26T03:48:35.866Z,17.07
2022-08-26T03:49:35.852Z,17.11
2022-08-26T03:50:36.006Z,17.12
2022-08-26T03:51:35.826Z,17.14
2022-08-26T03:52:35.814Z,17.08
2022-08-26T03:53:35.801Z,17.06
2022-08-26T03:54:35.787Z,17.00
2022-08-26T03:55:35.772Z,16.96
2022-08-26T03:56:35.761Z,16.93
2022-08-26T03:57:35.748Z,16.88
2022-08-26T03:58:35.735Z,16.91
2022-08-26T03:59:35.721Z,16.93
2022-08-26T04:00:35.709Z,16.96
2022-08-26T04:02:35.728Z,17.00
2022-08-26T04:03:35.670Z,17.00
2022-08-26T04:04:35.656Z,17.01
2022-08-26T04:05:35.642Z,17.00
2022-08-26T04:06:35.631Z,17.00
2022-08-26T04:07:35.616Z,17.00
2022-08-26T04:08:35.604Z,16.98
2022-08-26T04:09:35.591Z,16.94
2022-08-26T04:10:35.578Z,16.91
2022-08-26T04:11:35.564Z,16.82
2022-08-26T04:12:35.552Z,16.82
2022-08-26T04:13:35.537Z,16.77
2022-08-26T04:14:35.527Z,16.70
2022-08-26T04:15:35.513Z,16.60
2022-08-26T04:16:35.648Z,16.55
2022-08-26T04:17:35.486Z,16.45
2022-08-26T04:18:37.253Z,16.38
2022-08-26T04:19:35.464Z,16.24
2022-08-26T04:20:35.449Z,16.15
2022-08-26T04:21:35.433Z,16.14
2022-08-26T04:22:35.420Z,16.05
2022-08-26T04:23:47.105Z,15.97
2022-08-26T04:24:35.395Z,15.93
2022-08-26T04:25:35.379Z,15.89
2022-08-26T04:26:35.367Z,15.86
2022-08-26T04:27:35.353Z,15.80
2022-08-26T04:28:35.341Z,15.80
2022-08-26T04:29:35.326Z,15.78
2022-08-26T04:30:35.316Z,15.82
2022-08-26T04:31:35.377Z,15.84
2022-08-26T04:32:35.289Z,15.84
2022-08-26T04:33:35.275Z,15.90
2022-08-26T04:34:35.266Z,15.93
2022-08-26T04:35:35.254Z,15.87
2022-08-26T04:36:35.235Z,15.86
2022-08-26T04:37:35.220Z,15.92
2022-08-26T04:38:35.208Z,15.96
2022-08-26T04:39:35.194Z,16.00
2022-08-26T04:40:35.301Z,16.08
2022-08-26T04:41:35.167Z,16.14
2022-08-26T04:42:35.155Z,16.22
2022-08-26T04:43:35.140Z,16.27
2022-08-26T04:44:35.129Z,16.29
2022-08-26T04:45:35.115Z,16.33
2022-08-26T04:46:35.210Z,16.38
2022-08-26T04:47:35.088Z,16.41
2022-08-26T04:48:35.077Z,16.44
2022-08-26T04:49:35.663Z,16.45
2022-08-26T04:50:35.055Z,16.45
2022-08-26T04:51:35.036Z,16.48
2022-08-26T04:52:35.024Z,16.48
2022-08-26T04:53:35.010Z,16.55
2022-08-26T04:54:34.998Z,16.56
2022-08-26T04:55:39.961Z,16.55
2022-08-26T04:56:34.971Z,16.57
2022-08-26T04:57:34.958Z,16.62
2022-08-26T04:58:34.945Z,16.63
2022-08-26T04:59:38.932Z,16.65
2022-08-26T05:00:34.920Z,16.66
2022-08-26T05:01:35.025Z,16.66
2022-08-26T05:02:34.894Z,16.69
2022-08-26T05:03:34.881Z,16.70
2022-08-26T05:04:34.866Z,16.72
2022-08-26T05:05:34.851Z,16.74
2022-08-26T05:06:36.957Z,16.75
2022-08-26T05:07:34.828Z,16.80
2022-08-26T05:08:34.815Z,16.82
2022-08-26T05:09:34.803Z,16.88
2022-08-26T05:10:34.791Z,16.96
2022-08-26T05:11:34.772Z,16.97
2022-08-26T05:12:34.761Z,17.01
2022-08-26T05:13:34.746Z,17.01
2022-08-26T05:14:34.736Z,17.03
2022-08-26T05:15:34.745Z,17.06
2022-08-26T05:16:34.708Z,17.12
2022-08-26T05:17:34.695Z,17.12
2022-08-26T05:18:34.685Z,17.15
2022-08-26T05:19:34.666Z,17.25
2022-08-26T05:20:34.654Z,17.28
2022-08-26T05:21:34.640Z,17.34
2022-08-26T05:22:34.629Z,17.37
2022-08-26T05:23:34.614Z,17.43
2022-08-26T05:24:34.602Z,17.49
2022-08-26T05:25:34.587Z,17.46
2022-08-26T05:26:34.575Z,17.54
2022-08-26T05:27:34.562Z,17.52
2022-08-26T05:28:34.549Z,17.56
2022-08-26T05:29:34.535Z,17.58
2022-08-26T05:30:34.522Z,17.62
2022-08-26T05:31:34.568Z,17.65
2022-08-26T05:32:34.496Z,17.69
2022-08-26T05:33:34.481Z,17.74
2022-08-26T05:34:34.472Z,17.80
2022-08-26T05:35:34.455Z,17.85
2022-08-26T05:36:34.445Z,17.92
2022-08-26T05:37:34.428Z,17.99
2022-08-26T05:38:34.417Z,18.07
2022-08-26T05:39:34.418Z,18.13
2022-08-26T05:40:34.480Z,18.16
2022-08-26T05:41:36.593Z,18.22
2022-08-26T05:42:34.363Z,18.25
2022-08-26T05:43:34.351Z,18.29
2022-08-26T05:44:51.845Z,18.33
2022-08-26T05:45:34.323Z,18.36
2022-08-26T05:46:34.541Z,18.35
2022-08-26T05:47:34.296Z,18.45
2022-08-26T05:48:34.284Z,18.65
2022-08-26T05:49:34.271Z,18.95
2022-08-26T05:50:36.258Z,19.15
2022-08-26T05:51:34.246Z,19.17
2022-08-26T05:52:34.234Z,19.06
2022-08-26T05:53:34.219Z,18.92
2022-08-26T05:54:34.208Z,18.81
2022-08-26T05:55:34.195Z,18.69
2022-08-26T05:56:34.181Z,18.62
2022-08-26T05:57:37.504Z,18.66
2022-08-26T05:58:34.155Z,18.66
2022-08-26T05:59:34.141Z,18.80
2022-08-26T06:00:34.129Z,18.81
2022-08-26T06:01:35.841Z,18.82
2022-08-26T06:02:34.143Z,18.80
2022-08-26T06:03:34.146Z,18.82
2022-08-26T06:04:34.075Z,18.91
2022-08-26T06:05:38.231Z,18.91
2022-08-26T06:06:34.433Z,18.94
2022-08-26T06:07:34.036Z,19.03
2022-08-26T06:08:34.025Z,19.05
2022-08-26T06:09:34.012Z,19.10
2022-08-26T06:10:34.057Z,19.15
2022-08-26T06:11:33.984Z,19.20
2022-08-26T06:12:33.970Z,19.20
2022-08-26T06:13:33.958Z,19.21
2022-08-26T06:14:33.944Z,19.24
2022-08-26T06:15:33.985Z,19.30
2022-08-26T06:16:33.919Z,19.31
2022-08-26T06:17:33.908Z,19.32
2022-08-26T06:18:33.897Z,19.35
2022-08-26T06:19:34.530Z,19.31
2022-08-26T06:20:33.867Z,19.38
2022-08-26T06:21:33.854Z,19.40
2022-08-26T06:22:33.842Z,19.46
2022-08-26T06:23:33.829Z,19.49
2022-08-26T06:24:33.817Z,19.47
2022-08-26T06:25:33.804Z,19.50
2022-08-26T06:26:33.793Z,19.50
2022-08-26T06:27:33.779Z,19.54
2022-08-26T06:28:33.765Z,19.60
2022-08-26T06:29:33.760Z,19.62
2022-08-26T06:30:33.737Z,19.60
2022-08-26T06:31:33.796Z,19.60
2022-08-26T06:32:33.722Z,19.62
2022-08-26T06:33:33.703Z,19.57
2022-08-26T06:34:33.685Z,19.55
2022-08-26T06:35:33.672Z,19.64
2022-08-26T06:36:33.659Z,19.58
2022-08-26T06:37:33.647Z,19.62
2022-08-26T06:38:33.631Z,19.65
2022-08-26T06:39:33.617Z,19.70
2022-08-26T06:40:33.691Z,19.77
2022-08-26T06:41:33.592Z,19.80
2022-08-26T06:42:33.577Z,19.91
2022-08-26T06:43:33.567Z,19.95
2022-08-26T06:44:33.549Z,19.88
2022-08-26T06:45:33.537Z,19.98
2022-08-26T06:46:33.585Z,20.03
2022-08-26T06:47:33.511Z,19.99
2022-08-26T06:48:33.495Z,20.01
2022-08-26T06:49:33.482Z,20.08
2022-08-26T06:50:33.468Z,20.18
2022-08-26T06:51:34.640Z,20.23
2022-08-26T06:52:33.441Z,20.60
2022-08-26T06:53:33.430Z,21.09
2022-08-26T06:54:33.418Z,21.84
2022-08-26T06:55:33.403Z,22.27
2022-08-26T06:56:33.390Z,22.79
2022-08-26T06:57:33.378Z,22.98
2022-08-26T06:58:33.363Z,23.07
2022-08-26T06:59:33.352Z,22.73
2022-08-26T07:00:33.338Z,22.97
2022-08-26T07:01:33.388Z,23.05
2022-08-26T07:02:33.342Z,23.53
2022-08-26T07:03:39.506Z,23.39
2022-08-26T07:04:33.287Z,23.34
2022-08-26T07:05:33.276Z,23.82
2022-08-26T07:06:33.262Z,24.32
2022-08-26T07:07:33.249Z,24.94
2022-08-26T07:08:33.236Z,25.45
2022-08-26T07:09:33.234Z,25.62
2022-08-26T07:10:33.210Z,25.45
2022-08-26T07:11:33.198Z,25.51
2022-08-26T07:12:33.185Z,25.60
2022-08-26T07:13:33.175Z,25.55
2022-08-26T07:14:33.160Z,25.87
2022-08-26T07:15:33.209Z,25.65
2022-08-26T07:16:33.133Z,25.26
2022-08-26T07:17:33.122Z,25.22
2022-08-26T07:18:33.109Z,24.89
2022-08-26T07:19:33.098Z,24.82
2022-08-26T07:20:33.083Z,24.71
2022-08-26T07:21:33.070Z,24.40
2022-08-26T07:22:33.058Z,24.46
2022-08-26T07:23:33.046Z,24.58
2022-08-26T07:24:33.031Z,24.64
2022-08-26T07:25:33.021Z,25.02
2022-08-26T07:26:33.007Z,25.12
2022-08-26T07:27:32.996Z,25.54
2022-08-26T07:28:32.982Z,25.82
2022-08-26T07:29:32.970Z,26.16
2022-08-26T07:30:32.955Z,26.62
2022-08-26T07:31:39.600Z,26.99
2022-08-26T07:32:32.937Z,27.09
2022-08-26T07:33:32.920Z,27.19
2022-08-26T07:34:33.319Z,27.03
2022-08-26T07:35:32.897Z,26.42
2022-08-26T07:36:32.884Z,25.88
2022-08-26T07:37:35.486Z,25.69
2022-08-26T07:38:33.985Z,25.65
2022-08-26T07:39:32.897Z,25.65
2022-08-26T07:40:32.906Z,25.57
2022-08-26T07:41:32.822Z,25.54
2022-08-26T07:42:32.807Z,25.51
2022-08-26T07:43:32.796Z,25.47
2022-08-26T07:44:32.781Z,25.57
2022-08-26T07:45:32.772Z,25.70
2022-08-26T07:46:32.757Z,25.60
2022-08-26T07:47:32.757Z,25.50
2022-08-26T07:48:32.732Z,25.80
2022-08-26T07:49:32.760Z,26.36
2022-08-26T07:50:48.983Z,26.68
2022-08-26T07:51:32.695Z,27.10
2022-08-26T07:52:32.682Z,27.49
2022-08-26T07:53:32.671Z,27.43
2022-08-26T07:54:32.658Z,25.97
2022-08-26T07:55:32.647Z,25.88
2022-08-26T07:56:32.632Z,26.32
2022-08-26T07:57:32.622Z,25.75
2022-08-26T07:58:32.607Z,25.82
2022-08-26T07:59:32.596Z,26.43
2022-08-26T08:00:32.580Z,27.10
2022-08-26T08:01:32.570Z,26.80
2022-08-26T08:03:32.546Z,27.07
2022-08-26T08:04:32.532Z,27.29
2022-08-26T08:05:33.418Z,27.40
2022-08-26T08:06:32.508Z,27.62
2022-08-26T08:07:44.317Z,28.05
2022-08-26T08:08:32.483Z,28.46
2022-08-26T08:09:32.472Z,27.12
2022-08-26T08:10:32.458Z,26.17
2022-08-26T08:11:32.450Z,26.35
2022-08-26T08:12:32.432Z,26.79
2022-08-26T08:13:32.421Z,26.69
2022-08-26T08:14:32.408Z,26.74
2022-08-26T08:15:32.397Z,26.34
2022-08-26T08:16:33.305Z,26.51
2022-08-26T08:17:32.373Z,26.75
2022-08-26T08:18:32.356Z,27.34
2022-08-26T08:19:36.550Z,27.19
2022-08-26T08:20:32.332Z,27.80
2022-08-26T08:21:32.321Z,28.34
2022-08-26T08:22:32.307Z,28.61
2022-08-26T08:23:32.315Z,29.23
2022-08-26T08:24:32.282Z,29.82
2022-08-26T08:25:32.273Z,29.40
2022-08-26T08:26:32.259Z,29.25
2022-08-26T08:27:32.247Z,29.29
2022-08-26T08:28:32.338Z,29.13
2022-08-26T08:29:32.223Z,28.99
2022-08-26T08:30:32.244Z,29.10
2022-08-26T08:31:57.056Z,29.30
2022-08-26T08:32:34.186Z,29.07
2022-08-26T08:33:32.173Z,29.27
2022-08-26T08:34:32.203Z,29.27
2022-08-26T08:35:32.149Z,29.04
2022-08-26T08:36:33.654Z,28.96
2022-08-26T08:37:32.125Z,28.74
2022-08-26T08:38:32.111Z,28.58
2022-08-26T08:39:32.130Z,28.33
2022-08-26T08:40:32.104Z,28.41
2022-08-26T08:41:32.077Z,28.48
2022-08-26T08:42:32.060Z,28.33
2022-08-26T08:43:32.051Z,28.10
2022-08-26T08:44:32.044Z,27.80
2022-08-26T08:45:36.297Z,27.54
2022-08-26T08:46:32.040Z,27.49
2022-08-26T08:47:32.002Z,27.56
2022-08-26T08:48:31.988Z,27.69
2022-08-26T08:49:31.979Z,27.83
2022-08-26T08:50:31.973Z,27.74
2022-08-26T08:51:31.954Z,27.93
2022-08-26T08:52:31.939Z,28.02
2022-08-26T08:53:31.926Z,28.06
2022-08-26T08:54:31.913Z,28.10
2022-08-26T08:55:31.902Z,28.61
2022-08-26T08:56:31.888Z,29.18
2022-08-26T08:57:31.881Z,29.42
2022-08-26T08:58:31.864Z,29.82
2022-08-26T08:59:31.853Z,30.07
2022-08-26T09:00:32.639Z,30.20
2022-08-26T09:01:31.856Z,30.32
2022-08-26T09:02:31.886Z,30.27
2022-08-26T09:03:31.802Z,30.07
2022-08-26T09:04:31.789Z,30.41
2022-08-26T09:05:31.777Z,30.68
2022-08-26T09:06:31.764Z,30.88
2022-08-26T09:08:31.739Z,32.12
2022-08-26T09:09:31.730Z,32.93
2022-08-26T09:10:31.715Z,33.48
2022-08-26T09:11:31.705Z,33.93
2022-08-26T09:12:31.692Z,34.06
2022-08-26T09:13:32.027Z,33.93
2022-08-26T09:14:31.667Z,33.37
2022-08-26T09:15:31.656Z,33.25
2022-08-26T09:16:31.673Z,31.88
2022-08-26T09:17:31.631Z,31.32
2022-08-26T09:18:31.616Z,32.03
2022-08-26T09:19:31.605Z,32.20
2022-08-26T09:20:31.593Z,32.28
2022-08-26T09:21:31.581Z,32.65
2022-08-26T09:22:31.580Z,32.85
2022-08-26T09:23:31.558Z,32.70
2022-08-26T09:24:31.546Z,32.81
2022-08-26T09:25:31.536Z,33.11
2022-08-26T09:26:31.521Z,33.37
2022-08-26T09:27:31.548Z,33.59
2022-08-26T09:28:31.576Z,33.78
2022-08-26T09:29:31.491Z,33.80
2022-08-26T09:30:31.561Z,33.93
2022-08-26T09:31:31.582Z,32.47
2022-08-26T09:32:31.451Z,32.03
2022-08-26T09:33:31.441Z,31.72
2022-08-26T09:34:31.429Z,31.34
2022-08-26T09:35:31.419Z,30.66
2022-08-26T09:36:31.405Z,30.17
2022-08-26T09:37:31.395Z,30.20
2022-08-26T09:38:31.382Z,29.18
2022-08-26T09:39:31.371Z,29.03
2022-08-26T09:40:34.952Z,28.86
2022-08-26T09:41:31.350Z,29.03
2022-08-26T09:42:31.335Z,29.17
2022-08-26T09:43:31.324Z,29.35
2022-08-26T09:44:31.312Z,29.41
2022-08-26T09:45:31.306Z,30.42
2022-08-26T09:46:31.411Z,31.43
2022-08-26T09:47:31.840Z,32.32
2022-08-26T09:48:31.269Z,32.82
2022-08-26T09:49:35.794Z,32.81
2022-08-26T09:50:31.241Z,32.79
2022-08-26T09:51:31.237Z,33.37
2022-08-26T09:52:31.219Z,33.60
2022-08-26T09:53:31.206Z,33.19
2022-08-26T09:54:32.497Z,33.92
2022-08-26T09:55:31.185Z,34.56
2022-08-26T09:56:31.172Z,34.84
2022-08-26T09:57:31.167Z,34.99
2022-08-26T09:58:31.151Z,34.69
2022-08-26T09:59:31.139Z,34.59
2022-08-26T10:00:31.126Z,35.05
2022-08-26T10:01:31.149Z,35.25
2022-08-26T10:02:31.104Z,35.45
2022-08-26T10:03:31.476Z,34.27
2022-08-26T10:04:31.117Z,33.19
2022-08-26T10:05:31.074Z,33.38
2022-08-26T10:06:31.060Z,34.22
2022-08-26T10:07:31.053Z,34.13
2022-08-26T10:08:31.053Z,33.06
2022-08-26T10:09:31.030Z,32.60
2022-08-26T10:10:31.019Z,32.02
2022-08-26T10:11:31.008Z,31.95
2022-08-26T10:12:30.995Z,31.76
2022-08-26T10:13:31.111Z,31.63
2022-08-26T10:14:30.973Z,30.71
2022-08-26T10:15:30.962Z,30.60
2022-08-26T10:16:30.988Z,31.17
2022-08-26T10:17:31.024Z,31.81
2022-08-26T10:18:34.278Z,31.41
2022-08-26T10:19:55.823Z,31.75
2022-08-26T10:20:30.903Z,30.45
2022-08-26T10:21:30.892Z,30.19
2022-08-26T10:22:30.879Z,30.34
2022-08-26T10:23:30.899Z,31.14
2022-08-26T10:24:30.864Z,32.12
2022-08-26T10:25:30.845Z,32.96
2022-08-26T10:26:30.834Z,33.52
2022-08-26T10:27:30.822Z,33.59
2022-08-26T10:28:30.834Z,33.64
2022-08-26T10:29:30.799Z,33.00
2022-08-26T10:30:30.787Z,33.06
2022-08-26T10:31:30.831Z,32.87
2022-08-26T10:32:30.943Z,32.85
2022-08-26T10:33:30.753Z,32.40
2022-08-26T10:34:30.742Z,32.32
2022-08-26T10:35:30.728Z,32.85
2022-08-26T10:36:30.905Z,33.52
2022-08-26T10:37:30.711Z,34.27
2022-08-26T10:38:30.694Z,34.28
2022-08-26T10:39:30.682Z,35.17
2022-08-26T10:40:30.728Z,35.50
2022-08-26T10:41:30.660Z,35.72
2022-08-26T10:42:30.652Z,34.84
2022-08-26T10:43:30.639Z,34.52
2022-08-26T10:44:30.631Z,35.03
2022-08-26T10:45:30.715Z,35.33
2022-08-26T10:46:30.608Z,35.21
2022-08-26T10:47:30.597Z,34.98
2022-08-26T10:48:35.568Z,35.21
2022-08-26T10:49:30.578Z,34.74
2022-08-26T10:50:30.562Z,35.27
2022-08-26T10:51:30.552Z,34.91
2022-08-26T10:52:30.540Z,34.47
2022-08-26T10:53:32.566Z,34.42
2022-08-26T10:54:30.516Z,32.28
2022-08-26T10:55:30.502Z,32.32
2022-08-26T10:56:30.493Z,32.29
2022-08-26T10:57:30.478Z,32.60
2022-08-26T10:58:30.472Z,33.16
2022-08-26T10:59:30.454Z,33.65
2022-08-26T11:00:31.406Z,34.05
2022-08-26T11:01:30.476Z,33.78
2022-08-26T11:02:30.422Z,34.31
2022-08-26T11:03:30.410Z,34.96
2022-08-26T11:04:30.474Z,35.24
2022-08-26T11:05:30.388Z,35.93
2022-08-26T11:06:30.375Z,35.96
2022-08-26T11:07:31.662Z,35.71
2022-08-26T11:08:30.351Z,35.96
2022-08-26T11:09:30.338Z,35.65
2022-08-26T11:10:30.326Z,36.28
2022-08-26T11:11:30.315Z,35.92
2022-08-26T11:12:30.305Z,33.93
2022-08-26T11:13:30.292Z,33.53
2022-08-26T11:14:33.042Z,32.97
2022-08-26T11:15:30.276Z,32.74
2022-08-26T11:16:30.358Z,32.28
2022-08-26T11:17:30.245Z,32.51
2022-08-26T11:18:30.234Z,33.23
2022-08-26T11:19:50.528Z,33.81
2022-08-26T11:20:32.209Z,34.61
2022-08-26T11:21:30.199Z,35.36
2022-08-26T11:22:30.188Z,35.48
2022-08-26T11:23:30.177Z,36.18
2022-08-26T11:24:30.227Z,36.36
2022-08-26T11:25:31.118Z,36.50
2022-08-26T11:26:36.161Z,36.71
2022-08-26T11:27:30.133Z,35.87
2022-08-26T11:28:30.121Z,34.31
2022-08-26T11:29:30.106Z,33.97
2022-08-26T11:30:30.099Z,33.59
2022-08-26T11:31:30.170Z,33.90
2022-08-26T11:32:30.077Z,34.27
2022-08-26T11:33:30.064Z,34.34
2022-08-26T11:34:30.056Z,34.77
2022-08-26T11:35:30.042Z,35.41
2022-08-26T11:36:30.033Z,35.27
2022-08-26T11:37:30.020Z,34.88
2022-08-26T11:38:30.010Z,35.18
2022-08-26T11:39:29.997Z,35.09
2022-08-26T11:40:30.074Z,34.81
2022-08-26T11:41:29.976Z,34.69
2022-08-26T11:42:29.963Z,35.06
2022-08-26T11:43:30.383Z,35.70
2022-08-26T11:44:29.940Z,35.93
2022-08-26T11:45:29.981Z,36.07
2022-08-26T11:46:29.915Z,36.43
2022-08-26T11:47:29.905Z,36.38
2022-08-26T11:48:29.906Z,36.07
2022-08-26T11:49:29.877Z,35.52
2022-08-26T11:50:29.867Z,35.45
2022-08-26T11:51:29.863Z,36.08
2022-08-26T11:52:29.843Z,36.68
2022-08-26T11:53:29.914Z,37.18
2022-08-26T11:54:35.632Z,36.85
2022-08-26T11:55:29.804Z,36.46
2022-08-26T11:56:31.717Z,36.24
2022-08-26T11:57:29.784Z,35.52
2022-08-26T11:58:29.772Z,34.62
2022-08-26T11:59:29.813Z,34.66
2022-08-26T12:00:33.893Z,34.95
2022-08-26T12:01:31.288Z,34.00
2022-08-26T12:02:29.731Z,33.64
2022-08-26T12:04:29.843Z,32.78
2022-08-26T12:05:31.168Z,33.07
2022-08-26T12:06:29.686Z,33.68
2022-08-26T12:07:29.671Z,34.28
2022-08-26T12:08:29.660Z,35.05
2022-08-26T12:09:29.645Z,35.75
2022-08-26T12:10:29.693Z,36.19
2022-08-26T12:11:29.624Z,35.32
2022-08-26T12:12:32.890Z,35.36
2022-08-26T12:13:29.602Z,35.89
2022-08-26T12:14:29.590Z,35.14
2022-08-26T12:15:29.747Z,34.93
2022-08-26T12:16:29.654Z,34.59
2022-08-26T12:17:29.553Z,34.05
2022-08-26T12:18:30.173Z,33.93
2022-08-26T12:19:32.962Z,33.81
2022-08-26T12:20:29.521Z,34.16
2022-08-26T12:21:29.507Z,35.09
2022-08-26T12:22:29.495Z,35.87
2022-08-26T12:23:29.485Z,36.08
2022-08-26T12:24:29.473Z,36.42
2022-08-26T12:25:30.719Z,36.33
2022-08-26T12:26:29.450Z,36.21
2022-08-26T12:27:29.438Z,36.31
2022-08-26T12:28:29.427Z,36.33
2022-08-26T12:29:29.416Z,36.48
2022-08-26T12:30:29.405Z,36.75
2022-08-26T12:31:29.486Z,36.68
2022-08-26T12:32:29.383Z,36.55
2022-08-26T12:33:29.369Z,36.26
2022-08-26T12:34:29.358Z,35.35
2022-08-26T12:35:29.492Z,34.22
2022-08-26T12:36:29.336Z,33.22
2022-08-26T12:37:29.323Z,32.44
2022-08-26T12:38:29.313Z,32.40
2022-08-26T12:39:29.298Z,32.21
2022-08-26T12:40:29.355Z,32.32
2022-08-26T12:41:29.275Z,32.14
2022-08-26T12:42:29.265Z,32.07
2022-08-26T12:43:29.253Z,31.87
2022-08-26T12:44:29.242Z,31.35
2022-08-26T12:45:29.276Z,30.85
2022-08-26T12:46:29.218Z,30.54
2022-08-26T12:47:42.405Z,30.35
2022-08-26T12:48:29.193Z,30.11
2022-08-26T12:49:29.180Z,29.79
2022-08-26T12:50:29.172Z,29.48
2022-08-26T12:51:29.161Z,29.35
2022-08-26T12:52:29.144Z,29.42
2022-08-26T12:53:29.133Z,29.32
2022-08-26T12:54:29.119Z,29.47
2022-08-26T12:55:29.105Z,29.63
2022-08-26T12:56:29.096Z,29.64
2022-08-26T12:57:29.084Z,29.85